createdAt,value
2023-05-25T00:01:38.326Z,15.93
2023-05-25T00:04:05.951Z,15.89
2023-05-25T00:06:33.421Z,15.88
2023-05-25T00:09:00.718Z,15.84
2023-05-25T00:11:28.035Z,15.80
2023-05-25T00:13:55.613Z,15.77
2023-05-25T00:16:23.151Z,15.73
2023-05-25T00:18:51.121Z,15.69
2023-05-25T00:21:20.464Z,15.63
2023-05-25T00:23:47.818Z,15.57
2023-05-25T00:26:15.137Z,15.52
2023-05-25T00:28:42.705Z,15.48
2023-05-25T00:31:10.111Z,15.43
2023-05-25T00:33:37.631Z,15.39
2023-05-25T00:36:06.305Z,15.34
2023-05-25T00:38:33.829Z,15.30
2023-05-25T00:41:01.130Z,15.24
2023-05-25T00:43:28.445Z,15.20
2023-05-25T00:45:56.395Z,15.17
2023-05-25T00:48:26.060Z,15.12
2023-05-25T00:50:58.225Z,15.09
2023-05-25T00:53:27.152Z,15.05
2023-05-25T00:56:05.561Z,15.00
2023-05-25T00:58:34.630Z,14.96
2023-05-25T01:01:02.001Z,14.92
2023-05-25T01:03:31.603Z,14.91
2023-05-25T01:05:58.902Z,14.89
2023-05-25T01:08:26.250Z,14.87
2023-05-25T01:10:54.291Z,14.87
2023-05-25T01:13:21.858Z,14.86
2023-05-25T01:15:49.355Z,14.86
2023-05-25T01:18:17.093Z,14.85
2023-05-25T01:21:02.202Z,14.85
2023-05-25T01:23:33.305Z,14.84
2023-05-25T01:26:02.694Z,14.82
2023-05-25T01:28:36.102Z,14.81
2023-05-25T01:31:03.611Z,14.79
2023-05-25T01:33:30.984Z,14.78
2023-05-25T01:35:58.573Z,14.74
2023-05-25T01:40:38.070Z,14.71
2023-05-25T01:43:05.671Z,14.69
2023-05-25T01:45:34.352Z,14.69
2023-05-25T01:48:14.860Z,14.69
2023-05-25T01:51:02.653Z,14.69
2023-05-25T01:53:37.288Z,14.68
2023-05-25T01:56:08.938Z,14.67
2023-05-25T01:58:39.439Z,14.68
2023-05-25T02:01:07.602Z,14.67
2023-05-25T02:03:36.074Z,14.64
2023-05-25T02:06:04.614Z,14.61
2023-05-25T02:08:35.324Z,14.61
2023-05-25T02:11:03.429Z,14.59
2023-05-25T02:13:31.086Z,14.58
2023-05-25T02:15:58.480Z,14.55
2023-05-25T02:18:26.597Z,14.53
2023-05-25T02:20:54.965Z,14.53
2023-05-25T02:23:22.436Z,14.54
2023-05-25T02:25:51.784Z,14.56
2023-05-25T02:28:19.541Z,14.56
2023-05-25T02:30:46.927Z,14.53
2023-05-25T02:33:15.130Z,14.51
2023-05-25T02:35:43.216Z,14.47
2023-05-25T02:38:12.479Z,14.45
2023-05-25T02:40:39.869Z,14.42
2023-05-25T02:43:07.428Z,14.38
2023-05-25T02:45:35.056Z,14.40
2023-05-25T02:48:02.992Z,14.40
2023-05-25T02:50:31.619Z,14.38
2023-05-25T02:53:00.220Z,14.34
2023-05-25T02:55:28.066Z,14.30
2023-05-25T02:57:55.644Z,14.27
2023-05-25T03:00:42.978Z,14.25
2023-05-25T03:03:10.649Z,14.23
2023-05-25T03:05:38.613Z,14.23
2023-05-25T03:08:06.436Z,14.21
2023-05-25T03:10:33.919Z,14.20
2023-05-25T03:13:01.523Z,14.19
2023-05-25T03:15:28.838Z,14.20
2023-05-25T03:18:01.253Z,14.21
2023-05-25T03:20:29.892Z,14.22
2023-05-25T03:22:57.652Z,14.22
2023-05-25T03:25:26.071Z,14.21
2023-05-25T03:27:54.168Z,14.19
2023-05-25T03:30:24.827Z,14.18
2023-05-25T03:32:53.106Z,14.19
2023-05-25T03:35:21.244Z,14.20
2023-05-25T03:37:49.383Z,14.21
2023-05-25T03:40:18.067Z,14.23
2023-05-25T03:42:45.707Z,14.23
2023-05-25T03:45:13.113Z,14.23
2023-05-25T03:47:40.799Z,14.21
2023-05-25T03:50:08.807Z,14.19
2023-05-25T03:52:36.395Z,14.15
2023-05-25T03:55:05.255Z,14.12
2023-05-25T03:57:32.580Z,14.09
2023-05-25T04:00:00.210Z,14.07
2023-05-25T04:02:27.706Z,14.06
2023-05-25T04:04:57.146Z,14.09
2023-05-25T04:07:27.553Z,14.13
2023-05-25T04:09:54.943Z,14.19
2023-05-25T04:12:22.267Z,14.22
2023-05-25T04:14:49.928Z,14.22
2023-05-25T04:17:19.307Z,14.20
2023-05-25T04:19:46.700Z,14.19
2023-05-25T04:22:14.194Z,14.18
2023-05-25T04:24:42.556Z,14.17
2023-05-25T04:27:09.971Z,14.17
2023-05-25T04:29:38.340Z,14.20
2023-05-25T04:32:21.535Z,14.21
2023-05-25T04:34:56.730Z,14.22
2023-05-25T04:37:27.553Z,14.22
2023-05-25T04:39:57.791Z,14.22
2023-05-25T04:42:25.864Z,14.19
2023-05-25T04:45:00.076Z,14.17
2023-05-25T04:47:27.550Z,14.22
2023-05-25T04:49:55.398Z,14.27
2023-05-25T04:52:23.707Z,14.31
2023-05-25T04:54:51.910Z,14.34
2023-05-25T04:57:19.477Z,14.34
2023-05-25T04:59:47.675Z,14.34
2023-05-25T05:02:15.630Z,14.34
2023-05-25T05:04:43.086Z,14.34
2023-05-25T05:07:10.537Z,14.36
2023-05-25T05:09:38.045Z,14.37
2023-05-25T05:12:06.469Z,14.35
2023-05-25T05:14:38.177Z,14.33
2023-05-25T05:17:05.677Z,14.31
2023-05-25T05:19:33.500Z,14.33
2023-05-25T05:22:01.047Z,14.37
2023-05-25T05:24:28.658Z,14.41
2023-05-25T05:26:58.837Z,14.43
2023-05-25T05:29:48.619Z,14.45
2023-05-25T05:32:16.016Z,14.46
2023-05-25T05:34:43.768Z,14.50
2023-05-25T05:37:34.011Z,14.54
2023-05-25T05:40:01.442Z,14.55
2023-05-25T05:42:28.781Z,14.55
2023-05-25T05:44:56.437Z,14.58
2023-05-25T05:47:23.731Z,14.62
2023-05-25T05:49:51.700Z,14.63
2023-05-25T05:52:19.168Z,14.63
2023-05-25T05:54:46.732Z,14.64
2023-05-25T05:57:15.792Z,14.66
2023-05-25T05:59:43.887Z,14.70
2023-05-25T06:02:11.461Z,14.73
2023-05-25T06:04:39.729Z,14.81
2023-05-25T06:07:07.983Z,14.91
2023-05-25T06:09:35.749Z,15.01
2023-05-25T06:12:04.413Z,15.09
2023-05-25T06:14:31.816Z,15.16
2023-05-25T06:17:01.580Z,15.19
2023-05-25T06:19:29.228Z,15.20
2023-05-25T06:21:56.661Z,15.24
2023-05-25T06:24:24.212Z,15.25
2023-05-25T06:26:51.629Z,15.23
2023-05-25T06:29:19.787Z,15.21
2023-05-25T06:31:47.267Z,15.22
2023-05-25T06:34:14.947Z,15.24
2023-05-25T06:36:43.549Z,15.28
2023-05-25T06:39:10.984Z,15.37
2023-05-25T06:41:38.939Z,15.48
2023-05-25T06:44:07.228Z,15.63
2023-05-25T06:46:42.329Z,15.77
2023-05-25T06:49:10.098Z,15.86
2023-05-25T06:51:37.519Z,15.86
2023-05-25T06:54:05.095Z,15.84
2023-05-25T06:56:32.604Z,15.86
2023-05-25T06:59:00.054Z,15.85
2023-05-25T07:01:27.532Z,15.82
2023-05-25T07:03:55.011Z,15.82
2023-05-25T07:06:22.471Z,15.87
2023-05-25T07:08:49.926Z,15.97
2023-05-25T07:11:20.813Z,16.04
2023-05-25T07:13:48.532Z,16.06
2023-05-25T07:16:16.078Z,16.05
2023-05-25T07:18:43.629Z,16.07
2023-05-25T07:21:11.178Z,16.13
2023-05-25T07:23:40.486Z,16.19
2023-05-25T07:26:08.342Z,16.23
2023-05-25T07:28:35.676Z,16.22
2023-05-25T07:31:03.088Z,16.18
2023-05-25T07:33:31.106Z,16.15
2023-05-25T07:35:58.445Z,16.15
2023-05-25T07:38:26.124Z,16.20
2023-05-25T07:40:53.509Z,16.22
2023-05-25T07:43:21.856Z,16.26
2023-05-25T07:45:49.213Z,16.32
2023-05-25T07:48:16.680Z,16.39
2023-05-25T07:50:44.219Z,16.46
2023-05-25T07:53:11.680Z,16.54
2023-05-25T07:55:39.210Z,16.60
2023-05-25T07:58:07.810Z,16.60
2023-05-25T08:00:35.224Z,16.61
2023-05-25T08:03:02.838Z,16.65
2023-05-25T08:05:30.593Z,16.71
2023-05-25T08:07:58.047Z,16.76
2023-05-25T08:10:31.427Z,16.81
2023-05-25T08:12:59.043Z,16.87
2023-05-25T08:15:26.725Z,16.93
2023-05-25T08:17:54.721Z,16.93
2023-05-25T08:20:24.000Z,16.92
2023-05-25T08:22:53.744Z,16.96
2023-05-25T08:25:21.334Z,16.96
2023-05-25T08:27:50.265Z,16.96
2023-05-25T08:30:17.696Z,16.98
2023-05-25T08:32:45.369Z,17.05
2023-05-25T08:35:14.267Z,17.14
2023-05-25T08:37:43.597Z,17.21
2023-05-25T08:40:22.626Z,17.27
2023-05-25T08:42:49.926Z,17.35
2023-05-25T08:45:30.504Z,17.44
2023-05-25T08:48:02.029Z,17.57
2023-05-25T08:50:30.473Z,17.66
2023-05-25T08:52:58.137Z,17.70
2023-05-25T08:55:27.682Z,17.71
2023-05-25T08:57:58.085Z,17.73
2023-05-25T09:00:30.478Z,17.81
2023-05-25T09:03:13.472Z,17.93
2023-05-25T09:05:41.529Z,18.05
2023-05-25T09:08:09.376Z,18.06
2023-05-25T09:10:37.760Z,18.08
2023-05-25T09:13:19.660Z,18.14
2023-05-25T09:15:49.321Z,18.25
2023-05-25T09:18:16.723Z,18.36
2023-05-25T09:20:46.612Z,18.43
2023-05-25T09:23:15.082Z,18.48
2023-05-25T09:25:42.529Z,18.54
2023-05-25T09:30:40.454Z,18.74
2023-05-25T09:33:14.917Z,18.84
2023-05-25T09:35:42.364Z,18.87
2023-05-25T09:38:09.848Z,18.89
2023-05-25T09:40:38.031Z,18.95
2023-05-25T09:43:05.657Z,19.04
2023-05-25T09:45:33.122Z,19.17
2023-05-25T09:48:00.605Z,19.27
2023-05-25T09:50:29.180Z,19.28
2023-05-25T09:53:01.084Z,19.28
2023-05-25T09:55:39.973Z,19.34
2023-05-25T09:58:13.445Z,19.49
2023-05-25T10:00:41.426Z,19.65
2023-05-25T10:03:08.993Z,19.79
2023-05-25T10:05:36.420Z,19.90
2023-05-25T10:08:03.860Z,19.98
2023-05-25T10:10:31.213Z,20.08
2023-05-25T10:12:58.572Z,20.19
2023-05-25T10:15:26.016Z,20.27
2023-05-25T10:17:55.277Z,20.33
2023-05-25T10:20:24.486Z,20.39
2023-05-25T10:23:12.138Z,20.43
2023-05-25T10:25:47.063Z,20.47
2023-05-25T10:28:22.445Z,20.54
2023-05-25T10:30:50.128Z,20.64
2023-05-25T10:33:17.492Z,20.70
2023-05-25T10:36:01.354Z,20.76
2023-05-25T10:38:33.574Z,20.80
2023-05-25T10:41:00.966Z,20.85
2023-05-25T10:43:28.414Z,20.97
2023-05-25T10:45:56.912Z,21.10
2023-05-25T10:48:25.240Z,21.15
2023-05-25T10:50:52.649Z,21.21
2023-05-25T10:53:21.265Z,21.25
2023-05-25T10:56:01.155Z,21.29
2023-05-25T10:58:29.410Z,21.39
2023-05-25T11:01:01.864Z,21.50
2023-05-25T11:04:04.863Z,21.59
2023-05-25T11:06:40.528Z,21.71
2023-05-25T11:09:08.297Z,21.73
2023-05-25T11:11:47.512Z,21.73
2023-05-25T11:14:30.790Z,21.80
2023-05-25T11:17:19.993Z,21.94
2023-05-25T11:19:52.166Z,22.01
2023-05-25T11:22:21.276Z,22.06
2023-05-25T11:24:49.229Z,22.10
2023-05-25T11:27:22.027Z,22.10
2023-05-25T11:29:52.370Z,22.12
2023-05-25T11:32:19.964Z,22.18
2023-05-25T11:34:47.684Z,22.26
2023-05-25T11:37:21.439Z,22.35
2023-05-25T11:39:49.851Z,22.45
2023-05-25T11:42:17.835Z,22.46
2023-05-25T11:44:45.694Z,22.44
2023-05-25T11:47:14.571Z,22.44
2023-05-25T11:49:44.277Z,22.48
2023-05-25T11:52:12.133Z,22.52
2023-05-25T11:54:42.504Z,22.47
2023-05-25T11:57:18.096Z,22.43
2023-05-25T11:59:50.159Z,22.47
2023-05-25T12:02:17.713Z,22.53
2023-05-25T12:04:58.729Z,22.64
2023-05-25T12:07:26.388Z,22.79
2023-05-25T12:10:13.362Z,22.88
2023-05-25T12:12:42.517Z,22.99
2023-05-25T12:15:14.465Z,23.07
2023-05-25T12:17:43.165Z,23.11
2023-05-25T12:20:12.015Z,23.18
2023-05-25T12:22:40.084Z,23.27
2023-05-25T12:25:08.706Z,23.37
2023-05-25T12:27:36.772Z,23.51
2023-05-25T12:30:05.203Z,23.66
2023-05-25T12:32:32.993Z,23.76
2023-05-25T12:35:07.243Z,23.82
2023-05-25T12:37:34.770Z,23.89
2023-05-25T12:40:02.157Z,24.00
2023-05-25T12:42:32.435Z,24.10
2023-05-25T12:45:01.949Z,24.19
2023-05-25T12:47:30.529Z,24.25
2023-05-25T12:50:14.564Z,24.25
2023-05-25T12:52:44.295Z,24.22
2023-05-25T12:55:31.709Z,24.23
2023-05-25T12:58:01.578Z,24.36
2023-05-25T13:00:47.388Z,24.54
2023-05-25T13:03:15.019Z,24.61
2023-05-25T13:05:42.553Z,24.57
2023-05-25T13:08:09.932Z,24.51
2023-05-25T13:10:37.472Z,24.48
2023-05-25T13:13:05.096Z,24.54
2023-05-25T13:15:32.743Z,24.75
2023-05-25T13:18:00.276Z,24.96
2023-05-25T13:20:30.233Z,25.04
2023-05-25T13:22:58.112Z,25.05
2023-05-25T13:25:28.228Z,25.08
2023-05-25T13:27:58.249Z,25.19
2023-05-25T13:30:26.496Z,25.27
2023-05-25T13:32:54.130Z,25.29
2023-05-25T13:35:41.978Z,25.26
2023-05-25T13:38:10.612Z,25.19
2023-05-25T13:40:37.986Z,25.16
2023-05-25T13:43:05.509Z,25.14
2023-05-25T13:45:32.922Z,25.17
2023-05-25T13:48:00.501Z,25.21
2023-05-25T13:50:28.126Z,25.13
2023-05-25T13:52:55.607Z,25.10
2023-05-25T13:57:37.695Z,25.39
2023-05-25T14:00:06.172Z,25.39
2023-05-25T14:02:35.188Z,25.30
2023-05-25T14:05:02.756Z,25.21
2023-05-25T14:07:30.161Z,25.16
2023-05-25T14:09:58.333Z,25.26
2023-05-25T14:12:27.756Z,25.42
2023-05-25T14:14:58.112Z,25.43
2023-05-25T14:17:25.665Z,25.46
2023-05-25T14:19:53.167Z,25.46
2023-05-25T14:22:20.687Z,25.34
2023-05-25T14:24:48.050Z,25.22
2023-05-25T14:27:20.908Z,25.30
2023-05-25T14:29:49.140Z,25.52
2023-05-25T14:32:17.358Z,25.74
2023-05-25T14:34:44.994Z,25.92
2023-05-25T14:37:12.387Z,26.12
2023-05-25T14:39:40.081Z,26.32
2023-05-25T14:42:07.665Z,26.43
2023-05-25T14:44:34.969Z,26.35
2023-05-25T14:47:02.954Z,26.09
2023-05-25T14:49:30.502Z,25.89
2023-05-25T14:51:57.835Z,25.84
2023-05-25T14:54:25.139Z,25.90
2023-05-25T14:56:52.593Z,25.97
2023-05-25T14:59:20.012Z,26.11
2023-05-25T15:01:47.774Z,26.32
2023-05-25T15:04:15.201Z,26.70
2023-05-25T15:06:42.709Z,27.31
2023-05-25T15:09:10.103Z,28.13
2023-05-25T15:11:37.471Z,29.11
2023-05-25T15:14:05.061Z,30.09
2023-05-25T15:16:33.037Z,30.94
2023-05-25T15:19:01.162Z,31.49
2023-05-25T15:21:28.760Z,31.54
2023-05-25T15:23:56.557Z,31.11
2023-05-25T15:26:24.344Z,30.21
2023-05-25T15:28:51.872Z,29.25
2023-05-25T15:31:19.395Z,28.38
2023-05-25T15:33:56.265Z,27.56
2023-05-25T15:36:25.659Z,26.86
2023-05-25T15:38:52.965Z,26.24
2023-05-25T15:41:21.033Z,25.74
2023-05-25T15:43:51.310Z,25.34
2023-05-25T15:46:18.791Z,24.97
2023-05-25T15:48:46.352Z,24.75
2023-05-25T15:51:13.683Z,24.64
2023-05-25T15:53:41.107Z,24.58
2023-05-25T15:56:08.743Z,24.52
2023-05-25T15:58:36.251Z,24.44
2023-05-25T16:01:04.484Z,24.34
2023-05-25T16:03:31.933Z,24.28
2023-05-25T16:05:59.885Z,24.21
2023-05-25T16:08:27.473Z,24.14
2023-05-25T16:10:54.843Z,24.09
2023-05-25T16:13:22.364Z,24.02
2023-05-25T16:15:49.739Z,23.94
2023-05-25T16:18:17.127Z,23.89
2023-05-25T16:20:44.536Z,23.88
2023-05-25T16:23:12.032Z,23.89
2023-05-25T16:25:39.388Z,23.93
2023-05-25T16:28:06.750Z,23.96
2023-05-25T16:30:34.130Z,23.96
2023-05-25T16:33:01.571Z,23.90
2023-05-25T16:35:28.973Z,23.84
2023-05-25T16:37:56.398Z,23.78
2023-05-25T16:40:24.287Z,23.71
2023-05-25T16:42:51.730Z,23.64
2023-05-25T16:45:21.074Z,23.51
2023-05-25T16:47:50.086Z,23.31
2023-05-25T16:50:18.649Z,23.05
2023-05-25T16:52:46.056Z,22.81
2023-05-25T16:55:15.719Z,22.61
2023-05-25T16:57:42.980Z,22.44
2023-05-25T17:00:12.528Z,22.28
2023-05-25T17:02:39.860Z,22.03
2023-05-25T17:05:08.594Z,21.88
2023-05-25T17:07:36.198Z,21.79
2023-05-25T17:10:04.704Z,21.74
2023-05-25T17:12:32.038Z,21.66
2023-05-25T17:15:00.132Z,21.57
2023-05-25T17:17:28.262Z,21.49
2023-05-25T17:19:56.022Z,21.44
2023-05-25T17:22:23.489Z,21.43
2023-05-25T17:24:51.298Z,21.42
2023-05-25T17:27:18.744Z,21.37
2023-05-25T17:29:46.154Z,21.16
2023-05-25T17:32:13.666Z,20.91
2023-05-25T17:34:41.237Z,20.71
2023-05-25T17:37:08.719Z,20.54
2023-05-25T17:39:36.396Z,20.42
2023-05-25T17:42:03.976Z,20.33
2023-05-25T17:44:31.366Z,20.23
2023-05-25T17:46:58.723Z,20.14
2023-05-25T17:49:26.040Z,20.06
2023-05-25T17:51:53.516Z,19.99
2023-05-25T17:54:25.782Z,19.92
2023-05-25T17:56:56.547Z,19.84
2023-05-25T17:59:23.931Z,19.79
2023-05-25T18:01:51.556Z,19.74
2023-05-25T18:04:19.758Z,19.71
2023-05-25T18:06:51.605Z,19.67
2023-05-25T18:09:19.477Z,19.63
2023-05-25T18:11:47.298Z,19.58
2023-05-25T18:14:14.623Z,19.54
2023-05-25T18:16:44.586Z,19.52
2023-05-25T18:19:12.273Z,19.49
2023-05-25T18:21:40.548Z,19.47
2023-05-25T18:24:11.100Z,19.44
2023-05-25T18:26:38.481Z,19.41
2023-05-25T18:29:06.039Z,19.39
2023-05-25T18:31:33.773Z,19.34
2023-05-25T18:34:01.860Z,19.28
2023-05-25T18:36:29.599Z,19.26
2023-05-25T18:38:56.955Z,19.24
2023-05-25T18:41:26.924Z,19.24
2023-05-25T18:43:54.814Z,19.22
2023-05-25T18:46:22.806Z,19.19
2023-05-25T18:48:50.245Z,19.15
2023-05-25T18:51:17.724Z,19.11
2023-05-25T18:53:45.627Z,19.09
2023-05-25T18:56:12.957Z,19.07
2023-05-25T18:58:40.679Z,19.05
2023-05-25T19:01:08.008Z,19.02
2023-05-25T19:03:35.629Z,19.01
2023-05-25T19:06:03.175Z,18.97
2023-05-25T19:08:30.517Z,18.92
2023-05-25T19:10:58.010Z,18.87
2023-05-25T19:13:25.426Z,18.83
2023-05-25T19:15:52.888Z,18.79
2023-05-25T19:18:20.426Z,18.77
2023-05-25T19:20:48.140Z,18.75
2023-05-25T19:23:15.824Z,18.72
2023-05-25T19:25:43.349Z,18.69
2023-05-25T19:28:11.019Z,18.65
2023-05-25T19:30:39.860Z,18.61
2023-05-25T19:33:07.305Z,18.57
2023-05-25T19:35:34.885Z,18.54
2023-05-25T19:38:02.437Z,18.52
2023-05-25T19:40:30.948Z,18.50
2023-05-25T19:42:58.286Z,18.49
2023-05-25T19:45:25.838Z,18.47
2023-05-25T19:47:53.264Z,18.46
2023-05-25T19:50:20.811Z,18.42
2023-05-25T19:52:48.194Z,18.41
2023-05-25T19:55:15.564Z,18.41
2023-05-25T19:57:42.865Z,18.41
2023-05-25T20:00:21.268Z,18.39
2023-05-25T20:02:53.529Z,18.36
2023-05-25T20:05:21.257Z,18.34
2023-05-25T20:07:50.806Z,18.31
2023-05-25T20:10:18.229Z,18.27
2023-05-25T20:12:45.674Z,18.26
2023-05-25T20:15:12.979Z,18.25
2023-05-25T20:17:40.458Z,18.25
2023-05-25T20:20:08.288Z,18.23
2023-05-25T20:22:35.746Z,18.19
2023-05-25T20:25:03.669Z,18.15
2023-05-25T20:27:31.061Z,18.12
2023-05-25T20:29:58.464Z,18.11
2023-05-25T20:32:25.847Z,18.08
2023-05-25T20:34:53.269Z,18.09
2023-05-25T20:37:20.685Z,18.10
2023-05-25T20:39:47.983Z,18.06
2023-05-25T20:42:15.365Z,17.95
2023-05-25T20:44:42.932Z,17.83
2023-05-25T20:47:10.244Z,17.73
2023-05-25T20:49:37.543Z,17.64
2023-05-25T20:52:05.494Z,17.57
2023-05-25T20:54:33.543Z,17.48
2023-05-25T20:57:03.979Z,17.38
2023-05-25T20:59:32.038Z,17.26
2023-05-25T21:01:59.485Z,17.16
2023-05-25T21:04:27.819Z,17.09
2023-05-25T21:06:55.992Z,17.03
2023-05-25T21:09:23.499Z,16.95
2023-05-25T21:11:50.887Z,16.86
2023-05-25T21:14:18.303Z,16.79
2023-05-25T21:16:45.890Z,16.76
2023-05-25T21:19:13.245Z,16.73
2023-05-25T21:21:40.648Z,16.67
2023-05-25T21:24:08.101Z,16.62
2023-05-25T21:26:35.560Z,16.61
2023-05-25T21:29:02.913Z,16.62
2023-05-25T21:31:30.334Z,16.59
2023-05-25T21:33:58.852Z,16.55
2023-05-25T21:36:27.397Z,16.55
2023-05-25T21:38:54.849Z,16.56
2023-05-25T21:41:23.392Z,16.55
2023-05-25T21:43:51.281Z,16.54
2023-05-25T21:46:18.560Z,16.50
2023-05-25T21:48:45.884Z,16.47
2023-05-25T21:51:13.180Z,16.42
2023-05-25T21:53:40.590Z,16.41
2023-05-25T21:56:08.024Z,16.41
2023-05-25T21:58:35.405Z,16.40
2023-05-25T22:01:03.433Z,16.39
2023-05-25T22:03:31.018Z,16.39
2023-05-25T22:05:58.414Z,16.37
2023-05-25T22:08:25.861Z,16.33
2023-05-25T22:10:53.170Z,16.28
2023-05-25T22:13:21.458Z,16.20
2023-05-25T22:15:48.819Z,16.16
2023-05-25T22:18:16.263Z,16.14
2023-05-25T22:20:43.609Z,16.12
2023-05-25T22:23:11.621Z,16.08
2023-05-25T22:25:39.224Z,16.03
2023-05-25T22:28:06.635Z,15.99
2023-05-25T22:30:34.135Z,15.97
2023-05-25T22:33:02.063Z,15.96
2023-05-25T22:35:29.533Z,15.93
2023-05-25T22:37:56.845Z,15.87
2023-05-25T22:40:24.204Z,15.80
2023-05-25T22:42:51.679Z,15.73
2023-05-25T22:45:19.178Z,15.64
2023-05-25T22:47:46.535Z,15.54
2023-05-25T22:50:13.964Z,15.47
2023-05-25T22:52:41.461Z,15.42
2023-05-25T22:55:09.375Z,15.40
2023-05-25T22:57:37.014Z,15.40
2023-05-25T23:00:05.050Z,15.38
2023-05-25T23:02:32.500Z,15.31
2023-05-25T23:05:00.141Z,15.27
2023-05-25T23:07:27.522Z,15.24
2023-05-25T23:09:54.838Z,15.22
2023-05-25T23:12:22.227Z,15.17
2023-05-25T23:14:50.258Z,15.13
2023-05-25T23:17:17.728Z,15.09
2023-05-25T23:19:45.824Z,15.04
2023-05-25T23:22:13.138Z,14.98
2023-05-25T23:24:40.865Z,14.92
2023-05-25T23:27:08.695Z,14.88
2023-05-25T23:29:36.042Z,14.85
2023-05-25T23:32:03.639Z,14.83
2023-05-25T23:34:31.177Z,14.82
2023-05-25T23:36:58.901Z,14.80
2023-05-25T23:39:26.576Z,14.75
2023-05-25T23:41:53.867Z,14.71
2023-05-25T23:44:21.838Z,14.69
2023-05-25T23:46:49.306Z,14.66
2023-05-25T23:49:16.634Z,14.64
2023-05-25T23:51:44.234Z,14.64
2023-05-25T23:54:11.621Z,14.64
2023-05-25T23:56:39.015Z,14.61
2023-05-25T23:59:06.446Z,14.55
